Time;durP1;ratioP1;P1;durP2;ratioP2;P2;SDS_P1;SDS_P2;PMS_P1;PMS_P2;Temp;Humidity;BMP_temperature;BMP_pressure;BME280_temperature;BME280_humidity;BME280_pressure;Samples;Min_cycle;Max_cycle;Signal;HPM_P1;HPM_P2
2024/02/15 00:02:45;;;;;;;6.83;3.33;;;10.90;99.90;;;;;;4964626;28;21009;-76
2024/02/15 00:05:32;;;;;;;5.77;3.50;;;10.90;99.90;;;;;;4963325;28;21015;-76
2024/02/15 00:08:19;;;;;;;4.20;3.37;;;10.90;99.90;;;;;;4963482;28;20432;-76
2024/02/15 00:11:05;;;;;;;6.70;4.27;;;10.90;99.90;;;;;;4963932;28;20536;-76
2024/02/15 00:13:50;;;;;;;6.33;3.50;;;10.90;99.90;;;;;;4966808;28;20429;-75
2024/02/15 00:16:36;;;;;;;6.43;3.37;;;10.90;99.90;;;;;;4966626;28;20433;-76
2024/02/15 00:19:22;;;;;;;9.37;3.90;;;10.90;99.90;;;;;;4971279;28;20446;-76
2024/02/15 00:22:10;;;;;;;8.33;3.57;;;10.90;99.90;;;;;;4962278;28;20473;-76
2024/02/15 00:24:56;;;;;;;5.47;3.57;;;10.90;99.90;;;;;;4968601;28;20470;-76
2024/02/15 00:27:42;;;;;;;12.90;3.80;;;10.80;99.90;;;;;;4969403;28;20593;-76
2024/02/15 00:30:28;;;;;;;4.27;3.23;;;10.80;99.90;;;;;;4965410;28;20464;-76
2024/02/15 00:33:13;;;;;;;3.37;3.00;;;10.90;99.90;;;;;;4964162;28;20457;-75
2024/02/15 00:35:59;;;;;;;10.03;2.90;;;10.90;99.90;;;;;;4970150;28;20454;-75
2024/02/15 00:38:46;;;;;;;6.67;3.23;;;10.90;99.90;;;;;;4970320;28;20676;-76
2024/02/15 00:41:34;;;;;;;9.03;3.47;;;10.90;99.90;;;;;;4971102;28;20450;-76
2024/02/15 00:44:20;;;;;;;8.40;3.17;;;10.90;99.90;;;;;;4968997;28;20980;-76
2024/02/15 00:47:06;;;;;;;6.40;3.70;;;10.90;99.90;;;;;;4965398;28;20469;-76
2024/02/15 00:49:52;;;;;;;7.53;3.80;;;10.80;99.90;;;;;;4967484;28;20456;-75
2024/02/15 00:52:38;;;;;;;8.83;4.10;;;10.90;99.90;;;;;;4966044;28;21019;-74
2024/02/15 00:55:25;;;;;;;9.60;4.10;;;10.90;99.90;;;;;;4974036;28;21009;-74
2024/02/15 00:58:11;;;;;;;6.30;4.60;;;10.90;99.90;;;;;;4971841;28;20450;-76
2024/02/15 01:00:56;;;;;;;8.10;4.00;;;10.90;99.90;;;;;;4972521;28;20461;-76
2024/02/15 01:03:42;;;;;;;9.77;4.37;;;10.90;99.90;;;;;;4973054;28;20549;-76
2024/02/15 01:06:28;;;;;;;6.80;4.03;;;10.90;99.90;;;;;;4970240;28;20450;-77
2024/02/15 01:09:14;;;;;;;7.23;3.57;;;10.80;99.90;;;;;;4970587;28;20456;-77
2024/02/15 01:12:01;;;;;;;8.07;4.47;;;10.80;99.90;;;;;;4972574;28;20447;-74
2024/02/15 01:14:47;;;;;;;6.60;4.10;;;10.90;99.90;;;;;;4970637;28;20441;-76
2024/02/15 01:17:33;;;;;;;5.30;4.33;;;10.80;99.90;;;;;;4973222;28;20452;-76
2024/02/15 01:20:20;;;;;;;7.93;3.90;;;10.80;99.90;;;;;;4977427;28;20421;-76
2024/02/15 01:23:07;;;;;;;5.23;3.80;;;10.80;99.90;;;;;;4971040;28;20890;-76
2024/02/15 01:25:53;;;;;;;7.20;4.60;;;10.80;99.90;;;;;;4972254;28;20458;-76
2024/02/15 01:28:43;;;;;;;7.70;3.53;;;10.80;99.90;;;;;;4979645;28;20488;-76
2024/02/15 01:31:28;;;;;;;5.90;4.00;;;10.80;99.90;;;;;;4972719;28;20680;-77
2024/02/15 01:34:14;;;;;;;7.67;3.67;;;10.80;99.90;;;;;;4977206;28;20424;-76
2024/02/15 01:37:00;;;;;;;9.13;3.47;;;10.80;99.90;;;;;;4974516;28;20501;-74
2024/02/15 01:39:46;;;;;;;5.30;3.60;;;10.80;99.90;;;;;;4979314;28;20549;-72
2024/02/15 01:42:31;;;;;;;9.10;3.70;;;10.90;99.90;;;;;;4983724;28;20444;-76
2024/02/15 01:45:19;;;;;;;7.43;3.20;;;10.90;99.90;;;;;;4978673;28;20437;-75
2024/02/15 01:48:06;;;;;;;6.50;3.10;;;10.90;99.90;;;;;;4973891;28;20790;-77
2024/02/15 01:50:53;;;;;;;9.20;4.10;;;10.90;99.90;;;;;;4973372;28;20486;-76
2024/02/15 01:53:39;;;;;;;15.90;3.80;;;10.80;99.90;;;;;;4975331;28;20488;-76
2024/02/15 01:56:27;;;;;;;8.63;3.70;;;10.90;99.90;;;;;;4975255;28;20547;-76
2024/02/15 01:59:15;;;;;;;8.30;4.10;;;10.80;99.90;;;;;;4971711;28;20465;-77
2024/02/15 02:02:04;;;;;;;13.33;5.10;;;10.80;99.90;;;;;;4962817;28;20485;-77
2024/02/15 02:04:51;;;;;;;6.60;3.10;;;10.80;99.90;;;;;;4968315;28;20570;-75
2024/02/15 02:07:37;;;;;;;5.63;3.53;;;10.80;99.90;;;;;;4967294;28;20483;-76
2024/02/15 02:10:23;;;;;;;8.47;3.10;;;10.80;99.90;;;;;;4962471;28;20470;-77
2024/02/15 02:13:11;;;;;;;11.00;2.80;;;10.80;99.90;;;;;;4968083;28;21106;-75
2024/02/15 02:15:56;;;;;;;7.00;3.30;;;10.80;99.90;;;;;;4961533;28;20437;-76
2024/02/15 02:18:43;;;;;;;9.90;3.23;;;10.80;99.90;;;;;;4962056;28;20935;-74
2024/02/15 02:21:29;;;;;;;3.30;2.67;;;10.80;99.90;;;;;;4959583;28;20520;-75
2024/02/15 02:24:19;;;;;;;5.40;2.77;;;10.80;99.90;;;;;;4963816;28;20465;-76
2024/02/15 02:27:11;;;;;;;6.50;3.13;;;10.80;99.90;;;;;;4961177;28;20465;-76
2024/02/15 02:29:57;;;;;;;4.93;2.63;;;10.80;99.90;;;;;;4967977;28;20499;-76
2024/02/15 02:32:43;;;;;;;5.20;2.80;;;10.80;99.90;;;;;;4970596;28;20463;-75
2024/02/15 02:35:29;;;;;;;4.83;3.03;;;10.80;99.90;;;;;;4970153;28;20586;-74
2024/02/15 02:38:15;;;;;;;6.73;2.90;;;10.80;99.90;;;;;;4964926;28;20525;-76
2024/02/15 02:41:01;;;;;;;9.73;2.67;;;10.80;99.90;;;;;;4965475;28;20541;-76
2024/02/15 02:43:48;;;;;;;5.93;2.60;;;10.90;99.90;;;;;;4965643;28;20898;-76
2024/02/15 02:46:34;;;;;;;9.43;2.97;;;10.90;99.90;;;;;;4967734;28;20428;-75
2024/02/15 02:49:20;;;;;;;5.07;2.50;;;10.80;99.90;;;;;;4966122;28;20469;-76
2024/02/15 02:52:06;;;;;;;6.03;2.70;;;10.80;99.90;;;;;;4965670;28;20629;-75
2024/02/15 02:54:52;;;;;;;5.83;2.53;;;10.80;99.90;;;;;;4964983;28;20424;-76
2024/02/15 02:57:38;;;;;;;7.47;2.90;;;10.80;99.90;;;;;;4965165;28;20428;-76
2024/02/15 03:00:25;;;;;;;3.77;2.47;;;10.70;99.90;;;;;;4964068;28;20529;-76
2024/02/15 03:03:11;;;;;;;4.87;2.33;;;10.70;99.90;;;;;;4965729;28;20485;-76
2024/02/15 03:05:56;;;;;;;7.07;2.73;;;10.70;99.90;;;;;;4966463;28;21100;-76
2024/02/15 03:08:42;;;;;;;3.67;2.63;;;10.60;99.90;;;;;;4964015;28;20428;-76
2024/02/15 03:11:28;;;;;;;7.07;2.40;;;10.60;99.90;;;;;;4965229;28;20490;-76
2024/02/15 03:14:13;;;;;;;4.47;2.27;;;10.70;99.90;;;;;;4965778;28;20883;-75
2024/02/15 03:17:03;;;;;;;3.50;2.30;;;10.70;99.90;;;;;;4964529;28;20454;-73
2024/02/15 03:19:49;;;;;;;3.53;2.37;;;10.60;99.90;;;;;;4963878;28;20486;-76
2024/02/15 03:22:35;;;;;;;4.07;2.90;;;10.60;99.90;;;;;;4969929;28;20460;-77
2024/02/15 03:25:23;;;;;;;5.40;2.63;;;10.60;99.90;;;;;;4967311;28;20457;-77
2024/02/15 03:28:09;;;;;;;10.03;3.13;;;10.60;99.90;;;;;;4965206;28;20443;-76
2024/02/15 03:30:55;;;;;;;4.07;2.77;;;10.70;99.90;;;;;;4967170;28;20489;-76
2024/02/15 03:33:42;;;;;;;4.80;2.50;;;10.60;99.90;;;;;;4975091;28;20434;-76
2024/02/15 03:36:29;;;;;;;5.47;3.10;;;10.60;99.90;;;;;;4969691;28;20934;-76
2024/02/15 03:39:14;;;;;;;4.90;3.47;;;10.60;99.90;;;;;;4959127;28;20425;-76
2024/02/15 03:42:00;;;;;;;5.90;2.97;;;10.60;99.90;;;;;;4975532;28;20444;-73
2024/02/15 03:44:47;;;;;;;3.63;2.67;;;10.60;99.90;;;;;;4967677;28;20452;-76
2024/02/15 03:47:33;;;;;;;5.20;3.00;;;10.50;99.90;;;;;;4959628;28;20458;-76
2024/02/15 03:50:21;;;;;;;7.03;3.20;;;10.50;99.90;;;;;;4964876;28;20502;-76
2024/02/15 03:53:08;;;;;;;10.43;3.40;;;10.50;99.90;;;;;;4965100;28;21310;-74
2024/02/15 03:55:54;;;;;;;3.50;2.40;;;10.50;99.90;;;;;;4962988;28;20952;-76
2024/02/15 03:58:39;;;;;;;5.50;3.03;;;10.50;99.90;;;;;;4966740;28;20453;-77
2024/02/15 04:01:27;;;;;;;6.07;3.63;;;10.50;99.90;;;;;;4959414;28;20489;-76
2024/02/15 04:04:13;;;;;;;7.23;3.03;;;10.50;99.90;;;;;;4967480;28;20848;-75
2024/02/15 04:06:59;;;;;;;7.40;3.13;;;10.50;99.90;;;;;;4961594;28;20449;-75
2024/02/15 04:09:45;;;;;;;10.10;3.10;;;10.40;99.90;;;;;;4965704;28;20434;-74
2024/02/15 04:12:31;;;;;;;17.43;3.53;;;10.50;99.90;;;;;;4963072;28;20485;-73
2024/02/15 04:15:18;;;;;;;5.23;3.03;;;10.50;99.90;;;;;;4965187;28;20454;-76
2024/02/15 04:18:04;;;;;;;5.53;3.00;;;10.50;99.90;;;;;;4965666;28;20538;-75
2024/02/15 04:20:51;;;;;;;7.53;2.63;;;10.50;99.90;;;;;;4966866;28;21260;-76
2024/02/15 04:23:39;;;;;;;6.73;3.00;;;10.50;99.90;;;;;;4967105;28;20424;-76
2024/02/15 04:26:26;;;;;;;6.63;3.40;;;10.50;99.90;;;;;;4965098;28;20454;-76
2024/02/15 04:29:12;;;;;;;7.30;3.50;;;10.40;99.90;;;;;;4963860;28;20437;-76
2024/02/15 04:31:58;;;;;;;4.87;3.20;;;10.40;99.90;;;;;;4964911;28;21020;-76
2024/02/15 04:34:46;;;;;;;9.67;3.20;;;10.40;99.90;;;;;;4962344;28;20449;-76
2024/02/15 04:37:32;;;;;;;8.88;3.95;;;10.40;99.90;;;;;;4971596;28;20491;-74
2024/02/15 04:40:19;;;;;;;15.53;3.10;;;10.40;99.90;;;;;;4967399;28;20205;-74
2024/02/15 04:43:06;;;;;;;3.20;2.70;;;10.40;99.90;;;;;;4964470;28;20509;-77
2024/02/15 04:45:52;;;;;;;5.13;2.97;;;10.40;99.90;;;;;;4962681;28;20466;-76
2024/02/15 04:48:38;;;;;;;11.13;3.57;;;10.40;99.90;;;;;;4973560;28;20432;-77
2024/02/15 04:51:24;;;;;;;6.93;3.33;;;10.40;99.90;;;;;;4975031;28;20457;-77
2024/02/15 04:54:12;;;;;;;6.70;3.30;;;10.40;99.90;;;;;;4974269;28;20453;-77
2024/02/15 04:57:00;;;;;;;7.67;3.43;;;10.40;99.90;;;;;;4973345;28;21008;-76
2024/02/15 04:59:48;;;;;;;7.60;3.60;;;10.30;99.90;;;;;;4975083;28;20570;-77
2024/02/15 05:02:36;;;;;;;9.93;2.53;;;10.30;99.90;;;;;;4976904;28;20503;-75
2024/02/15 05:05:24;;;;;;;9.47;3.87;;;10.30;99.90;;;;;;4976243;28;20860;-77
2024/02/15 05:08:09;;;;;;;4.87;2.87;;;10.30;99.90;;;;;;4978833;28;20436;-76
2024/02/15 05:10:56;;;;;;;6.80;3.27;;;10.40;99.90;;;;;;4969060;28;20488;-76
2024/02/15 05:13:44;;;;;;;6.30;3.57;;;10.40;99.90;;;;;;4970861;28;20565;-77
2024/02/15 05:16:31;;;;;;;4.37;2.67;;;10.30;99.90;;;;;;4973471;28;20916;-76
2024/02/15 05:19:17;;;;;;;4.97;3.00;;;10.40;99.90;;;;;;4969939;28;20451;-76
2024/02/15 05:22:05;;;;;;;11.03;3.37;;;10.40;99.90;;;;;;4970182;28;20533;-76
2024/02/15 05:24:51;;;;;;;4.30;2.90;;;10.30;99.90;;;;;;4973486;28;20429;-76
2024/02/15 05:27:37;;;;;;;4.60;2.90;;;10.30;99.90;;;;;;4971735;28;20458;-77
2024/02/15 05:30:23;;;;;;;7.70;3.10;;;10.30;99.90;;;;;;4974343;28;20481;-76
2024/02/15 05:33:10;;;;;;;5.90;3.07;;;10.20;99.90;;;;;;4961569;28;20488;-75
2024/02/15 05:35:56;;;;;;;6.33;3.20;;;10.20;99.90;;;;;;4963642;28;20469;-75
2024/02/15 05:38:45;;;;;;;11.40;3.30;;;10.20;99.90;;;;;;4965234;28;21036;-76
2024/02/15 05:41:32;;;;;;;8.67;3.43;;;10.30;99.90;;;;;;4964038;28;20547;-77
2024/02/15 05:44:20;;;;;;;4.90;2.60;;;10.20;99.90;;;;;;4962401;28;20594;-74
2024/02/15 05:47:07;;;;;;;4.37;3.67;;;10.20;99.90;;;;;;4964907;28;20993;-76
2024/02/15 05:49:53;;;;;;;4.60;2.80;;;10.20;99.90;;;;;;4971535;28;20454;-75
2024/02/15 05:52:40;;;;;;;4.93;2.63;;;10.20;99.90;;;;;;4967322;28;20424;-76
2024/02/15 05:55:29;;;;;;;7.30;3.10;;;10.20;99.90;;;;;;4963610;28;20448;-77
2024/02/15 05:58:14;;;;;;;6.80;2.70;;;10.30;99.90;;;;;;4973105;28;20533;-76
2024/02/15 06:01:01;;;;;;;7.77;3.00;;;10.30;99.90;;;;;;4967919;28;20617;-76
2024/02/15 06:03:48;;;;;;;5.80;3.20;;;10.30;99.90;;;;;;4964571;28;20519;-76
2024/02/15 06:06:34;;;;;;;8.30;3.00;;;10.30;99.90;;;;;;4965534;28;20459;-76
2024/02/15 06:09:21;;;;;;;11.20;3.70;;;10.30;99.90;;;;;;4970306;28;20534;-77
2024/02/15 06:12:07;;;;;;;9.23;3.03;;;10.30;99.90;;;;;;4961644;28;20509;-76
2024/02/15 06:14:53;;;;;;;4.47;2.97;;;10.40;99.90;;;;;;4965264;28;20513;-76
2024/02/15 06:17:39;;;;;;;5.20;2.60;;;10.30;99.90;;;;;;4964319;28;20446;-76
2024/02/15 06:20:29;;;;;;;5.80;3.03;;;10.40;99.90;;;;;;4965635;28;20461;-76
2024/02/15 06:23:14;;;;;;;7.23;4.20;;;10.40;99.90;;;;;;4959964;28;20433;-77
2024/02/15 06:26:00;;;;;;;17.43;4.13;;;10.30;99.90;;;;;;4965885;28;20529;-76
2024/02/15 06:41:00;;;;;;;5.33;2.50;;;10.30;99.90;;;;;;4965089;28;20499;-73
2024/02/15 06:43:46;;;;;;;4.73;2.60;;;10.30;99.90;;;;;;4963380;28;20431;-75
2024/02/15 06:46:32;;;;;;;7.07;2.70;;;10.30;99.90;;;;;;4955100;28;20492;-75
2024/02/15 06:49:18;;;;;;;7.63;3.13;;;10.30;99.90;;;;;;4966562;28;20458;-76
2024/02/15 06:52:04;;;;;;;3.60;2.63;;;10.30;99.90;;;;;;4968690;28;20460;-76
2024/02/15 06:54:52;;;;;;;6.37;2.43;;;10.40;99.90;;;;;;4964239;28;20462;-76
2024/02/15 06:57:38;;;;;;;4.60;2.87;;;10.40;99.90;;;;;;4964064;28;20432;-77
2024/02/15 07:00:24;;;;;;;4.00;2.70;;;10.30;99.90;;;;;;4964883;28;20513;-77
2024/02/15 07:03:10;;;;;;;9.80;2.40;;;10.30;99.90;;;;;;4963586;28;20462;-76
2024/02/15 07:05:57;;;;;;;4.90;2.90;;;10.30;99.90;;;;;;4967441;28;20473;-76
2024/02/15 07:08:42;;;;;;;6.00;3.10;;;10.30;99.90;;;;;;4966017;28;20454;-76
2024/02/15 07:11:30;;;;;;;8.43;2.73;;;10.30;99.90;;;;;;4964212;28;20827;-75
2024/02/15 07:14:16;;;;;;;11.20;3.90;;;10.30;99.90;;;;;;4963837;28;20686;-75
2024/02/15 07:17:02;;;;;;;5.27;3.47;;;10.40;99.90;;;;;;4968977;28;20469;-76
2024/02/15 07:19:49;;;;;;;6.77;3.60;;;10.40;99.90;;;;;;4963145;28;20454;-76
2024/02/15 07:22:35;;;;;;;8.93;3.00;;;10.50;99.90;;;;;;4962335;28;20479;-73
2024/02/15 07:25:20;;;;;;;5.70;2.70;;;10.50;99.90;;;;;;4964491;28;20453;-74
2024/02/15 07:28:09;;;;;;;5.90;2.80;;;10.50;99.90;;;;;;4971577;28;20543;-76
2024/02/15 07:30:54;;;;;;;7.73;3.77;;;10.50;99.90;;;;;;4966203;28;20481;-75
2024/02/15 07:33:42;;;;;;;6.13;3.40;;;10.50;99.90;;;;;;4971223;28;20469;-75
2024/02/15 07:36:28;;;;;;;6.67;3.30;;;10.50;99.90;;;;;;4964200;28;20425;-76
2024/02/15 07:39:23;;;;;;;7.17;3.27;;;10.60;99.90;;;;;;4966714;28;20472;-76
2024/02/15 07:42:09;;;;;;;11.27;4.30;;;10.60;99.90;;;;;;4969394;28;20946;-75
2024/02/15 07:44:56;;;;;;;7.50;3.20;;;10.70;99.90;;;;;;4964041;28;20474;-77
2024/02/15 07:47:41;;;;;;;13.83;3.83;;;10.70;99.90;;;;;;4967705;28;20427;-76
2024/02/15 07:50:29;;;;;;;8.40;3.77;;;10.70;99.90;;;;;;4966770;28;20453;-77
2024/02/15 07:53:14;;;;;;;13.70;3.50;;;10.80;99.90;;;;;;4967411;28;20824;-76
2024/02/15 07:56:00;;;;;;;6.80;3.30;;;10.80;99.90;;;;;;4964274;28;20454;-76
2024/02/15 07:58:51;;;;;;;9.30;3.13;;;10.90;99.90;;;;;;4965946;28;20605;-77
2024/02/15 08:01:41;;;;;;;8.03;3.90;;;10.90;99.90;;;;;;4968648;28;20469;-76
2024/02/15 08:04:28;;;;;;;12.13;4.60;;;10.90;99.90;;;;;;4973098;28;20989;-75
2024/02/15 08:07:14;;;;;;;9.33;4.53;;;11.00;99.90;;;;;;4970374;28;20810;-77
2024/02/15 08:10:00;;;;;;;7.30;5.03;;;11.00;99.90;;;;;;4963639;28;20446;-76
2024/02/15 08:12:52;;;;;;;11.10;4.90;;;11.00;99.90;;;;;;4964536;28;20471;-76
2024/02/15 08:15:37;;;;;;;14.20;5.60;;;11.00;99.90;;;;;;4962684;28;20972;-76
2024/02/15 08:18:25;;;;;;;9.40;4.93;;;11.10;99.90;;;;;;4965044;28;20429;-76
2024/02/15 08:21:11;;;;;;;10.37;4.40;;;11.10;99.90;;;;;;4966041;28;20477;-76
2024/02/15 08:23:58;;;;;;;5.63;4.50;;;11.10;99.90;;;;;;4967253;28;20488;-76
2024/02/15 08:26:44;;;;;;;11.77;5.10;;;11.10;99.90;;;;;;4967000;28;20451;-75
2024/02/15 08:29:29;;;;;;;10.37;6.00;;;11.20;99.90;;;;;;4967953;28;20484;-77
2024/02/15 08:32:15;;;;;;;9.60;4.80;;;11.20;99.90;;;;;;4964112;28;21002;-76
2024/02/15 08:35:04;;;;;;;10.57;7.53;;;11.30;99.90;;;;;;4966810;28;20976;-76
2024/02/15 08:37:51;;;;;;;17.03;11.40;;;11.40;99.90;;;;;;4970663;28;20530;-76
2024/02/15 08:40:37;;;;;;;20.80;13.10;;;11.50;99.90;;;;;;4965832;28;20449;-76
2024/02/15 08:43:23;;;;;;;17.70;13.17;;;11.50;99.90;;;;;;4967362;28;21587;-77
2024/02/15 08:46:09;;;;;;;36.77;15.77;;;11.50;99.90;;;;;;4965547;28;20500;-76
2024/02/15 08:48:55;;;;;;;21.30;15.83;;;11.50;99.90;;;;;;4967348;28;20450;-77
2024/02/15 08:51:42;;;;;;;25.83;16.50;;;11.50;99.90;;;;;;4963385;28;20533;-76
2024/02/15 08:54:28;;;;;;;22.40;15.80;;;11.50;99.90;;;;;;4964077;28;20459;-76
2024/02/15 08:57:13;;;;;;;19.97;15.50;;;11.60;99.90;;;;;;4971027;28;20451;-76
2024/02/15 08:59:59;;;;;;;22.80;14.67;;;11.60;99.90;;;;;;4969051;28;20479;-77
2024/02/15 09:02:45;;;;;;;23.40;16.57;;;11.70;99.90;;;;;;4963603;28;20473;-77
2024/02/15 09:05:30;;;;;;;21.40;17.40;;;11.80;99.90;;;;;;4965740;28;20444;-76
2024/02/15 09:08:20;;;;;;;27.10;17.87;;;11.90;99.90;;;;;;4967571;28;20529;-76
2024/02/15 09:11:06;;;;;;;23.20;16.20;;;12.00;99.90;;;;;;4967561;28;20475;-76
2024/02/15 09:13:52;;;;;;;21.63;10.43;;;12.00;99.90;;;;;;4965620;28;20458;-76
2024/02/15 09:16:38;;;;;;;16.27;11.50;;;12.10;99.90;;;;;;4967722;28;20479;-76
2024/02/15 09:19:24;;;;;;;28.80;14.07;;;12.20;99.90;;;;;;4966920;28;20429;-76
2024/02/15 09:22:09;;;;;;;21.37;12.50;;;12.30;99.90;;;;;;4968202;28;21041;-76
2024/02/15 09:24:57;;;;;;;16.57;9.70;;;12.30;99.90;;;;;;4966764;28;20998;-77
2024/02/15 09:27:42;;;;;;;18.90;10.30;;;12.40;99.90;;;;;;4964849;28;20500;-76
2024/02/15 09:30:28;;;;;;;12.37;7.60;;;12.50;99.90;;;;;;4968325;28;21033;-76
2024/02/15 09:33:14;;;;;;;12.67;8.67;;;12.60;99.90;;;;;;4963161;28;20468;-76
2024/02/15 09:36:00;;;;;;;14.30;7.20;;;12.60;99.90;;;;;;4968992;28;20441;-76
2024/02/15 09:38:46;;;;;;;10.90;6.43;;;12.70;99.90;;;;;;4966611;28;20473;-77
2024/02/15 09:41:34;;;;;;;9.20;5.50;;;12.80;99.90;;;;;;4972567;28;20617;-76
2024/02/15 09:44:19;;;;;;;8.30;4.90;;;12.90;99.90;;;;;;4963145;28;20433;-76
2024/02/15 09:47:08;;;;;;;8.97;4.30;;;13.10;99.90;;;;;;4968651;28;20506;-76
2024/02/15 09:49:53;;;;;;;7.80;4.37;;;13.20;99.90;;;;;;4967797;28;21037;-75
2024/02/15 09:52:40;;;;;;;9.73;3.73;;;13.30;99.90;;;;;;4963722;28;20475;-77
2024/02/15 09:55:27;;;;;;;4.60;2.77;;;13.40;99.90;;;;;;4967066;28;20438;-76
2024/02/15 09:58:15;;;;;;;6.40;3.30;;;13.60;99.90;;;;;;4964262;28;20451;-79
2024/02/15 10:01:06;;;;;;;12.07;3.40;;;13.80;99.90;;;;;;4964485;28;20445;-78
2024/02/15 10:03:52;;;;;;;5.50;2.50;;;14.00;99.90;;;;;;4972611;28;20910;-75
2024/02/15 10:06:37;;;;;;;6.23;2.67;;;14.10;99.90;;;;;;4968269;28;20830;-76
2024/02/15 10:09:30;;;;;;;5.70;3.07;;;14.10;99.90;;;;;;4970025;28;20429;-76
2024/02/15 10:12:15;;;;;;;8.20;2.70;;;14.30;99.90;;;;;;4960232;28;20488;-77
2024/02/15 10:15:05;;;;;;;4.63;2.30;;;14.40;99.90;;;;;;4961191;28;20453;-77
2024/02/15 10:17:56;;;;;;;6.93;2.90;;;14.60;99.90;;;;;;4964647;28;20452;-76
2024/02/15 10:20:44;;;;;;;5.97;2.30;;;14.70;99.90;;;;;;4963915;28;21051;-78
2024/02/15 10:23:29;;;;;;;6.67;2.10;;;14.90;99.90;;;;;;4964864;28;20455;-78
2024/02/15 10:26:23;;;;;;;6.77;2.50;;;15.00;99.90;;;;;;4974758;28;20793;-76
2024/02/15 10:29:11;;;;;;;5.20;2.00;;;15.20;99.90;;;;;;4966544;28;20939;-77
2024/02/15 10:31:59;;;;;;;6.43;2.40;;;15.30;99.90;;;;;;4965946;28;20469;-76
2024/02/15 10:34:45;;;;;;;4.13;2.20;;;15.30;99.90;;;;;;4964754;28;21024;-76
2024/02/15 10:37:31;;;;;;;4.63;2.07;;;15.40;99.90;;;;;;4976287;28;20804;-78
2024/02/15 10:40:19;;;;;;;5.30;2.30;;;15.40;99.90;;;;;;4975378;28;20884;-76
2024/02/15 10:43:06;;;;;;;6.03;1.83;;;15.60;99.90;;;;;;4971101;28;20918;-78
2024/02/15 10:45:52;;;;;;;9.53;2.53;;;15.70;99.90;;;;;;4976365;28;20936;-77
2024/02/15 10:48:39;;;;;;;8.70;2.07;;;15.90;99.90;;;;;;4978321;28;20444;-76
2024/02/15 10:51:27;;;;;;;4.97;2.00;;;16.00;99.90;;;;;;4980051;28;20489;-76
2024/02/15 10:54:17;;;;;;;3.60;1.57;;;16.00;99.90;;;;;;4980295;28;20430;-77
2024/02/15 10:57:06;;;;;;;4.90;1.80;;;16.10;99.90;;;;;;4980036;28;20442;-79
2024/02/15 10:59:57;;;;;;;5.07;1.60;;;16.00;99.90;;;;;;4978974;28;20433;-77
2024/02/15 11:02:47;;;;;;;5.93;1.83;;;16.10;99.90;;;;;;4978652;28;21101;-76
2024/02/15 11:05:37;;;;;;;9.33;1.80;;;16.10;99.90;;;;;;4974529;28;20578;-76
2024/02/15 11:08:23;;;;;;;3.40;1.63;;;16.20;99.90;;;;;;4974889;28;20427;-77
2024/02/15 11:11:11;;;;;;;4.33;1.70;;;16.40;99.90;;;;;;4981053;28;20470;-77
2024/02/15 11:14:24;;;;;;;6.47;2.47;;;16.50;99.90;;;;;;4980084;28;20417;-77
2024/02/15 11:17:13;;;;;;;6.30;2.30;;;16.70;99.90;;;;;;4971575;28;20443;-78
2024/02/15 11:19:59;;;;;;;7.73;2.40;;;16.80;99.90;;;;;;4976383;28;20426;-78
2024/02/15 11:22:57;;;;;;;9.80;2.00;;;17.00;99.90;;;;;;4972974;28;20444;-78
2024/02/15 11:25:43;;;;;;;12.93;2.10;;;17.00;99.90;;;;;;4974768;28;20527;-77
2024/02/15 11:28:40;;;;;;;4.77;1.73;;;17.10;99.90;;;;;;4974485;28;20426;-77
2024/02/15 11:31:54;;;;;;;8.70;2.13;;;17.10;99.90;;;;;;4975437;28;20436;-77
2024/02/15 11:34:45;;;;;;;3.13;1.93;;;17.20;99.90;;;;;;4971535;28;21054;-76
2024/02/15 11:37:53;;;;;;;6.20;2.00;;;17.40;99.90;;;;;;4975966;28;20549;-77
2024/02/15 11:41:01;;;;;;;4.27;1.70;;;17.40;99.90;;;;;;4972564;28;20484;-78
2024/02/15 11:44:01;;;;;;;10.77;2.80;;;17.30;99.90;;;;;;4972955;28;20962;-77
2024/02/15 11:46:53;;;;;;;5.00;1.70;;;17.30;99.90;;;;;;4983930;28;20563;-77
2024/02/15 11:49:39;;;;;;;3.23;1.50;;;17.40;99.90;;;;;;4982808;28;20437;-77
2024/02/15 11:52:25;;;;;;;11.37;2.10;;;17.40;99.90;;;;;;4976758;28;20578;-76
2024/02/15 11:55:13;;;;;;;2.47;1.30;;;17.30;99.90;;;;;;4979129;28;20418;-77
2024/02/15 11:58:16;;;;;;;2.80;1.50;;;17.10;99.90;;;;;;4982837;28;20420;-76
2024/02/15 12:19:28;;;;;;;3.80;1.50;;;17.10;99.90;;;;;;4971209;28;20436;-76
2024/02/15 12:22:14;;;;;;;7.70;1.47;;;17.00;99.90;;;;;;4972338;28;20510;-76
2024/02/15 12:25:01;;;;;;;2.73;1.00;;;17.00;99.90;;;;;;4968653;28;20480;-75
2024/02/15 12:27:53;;;;;;;3.17;1.30;;;16.90;99.90;;;;;;4963436;28;20460;-76
2024/02/15 12:30:40;;;;;;;3.30;1.03;;;17.00;99.90;;;;;;4963901;28;20505;-77
2024/02/15 12:33:27;;;;;;;5.53;1.37;;;17.00;99.90;;;;;;4958367;28;20615;-76
2024/02/15 12:36:12;;;;;;;3.50;1.10;;;16.90;99.90;;;;;;4968088;28;20844;-77
2024/02/15 12:39:02;;;;;;;5.00;1.00;;;16.90;99.90;;;;;;4965050;28;20507;-76
2024/02/15 12:41:51;;;;;;;3.67;1.23;;;16.80;91.70;;;;;;4975185;28;20569;-76
2024/02/15 12:44:45;;;;;;;4.53;1.57;;;16.90;94.60;;;;;;4975822;28;20445;-79
2024/02/15 12:47:32;;;;;;;6.77;1.60;;;16.90;97.90;;;;;;4974183;28;20975;-77
2024/02/15 12:50:18;;;;;;;1.87;0.87;;;16.80;91.10;;;;;;4969810;28;20434;-77
2024/02/15 12:53:05;;;;;;;4.87;1.30;;;16.80;92.30;;;;;;4974070;28;20453;-77
2024/02/15 12:55:55;;;;;;;4.13;1.23;;;16.80;95.40;;;;;;4967870;28;20443;-77
2024/02/15 12:58:43;;;;;;;2.60;1.30;;;16.80;96.40;;;;;;4973570;28;20531;-77
2024/02/15 13:01:30;;;;;;;4.93;1.27;;;16.70;99.90;;;;;;4966728;28;20485;-76
2024/02/15 13:04:24;;;;;;;6.97;2.20;;;16.70;99.90;;;;;;4974795;28;20556;-77
2024/02/15 13:07:09;;;;;;;6.60;1.50;;;16.70;94.80;;;;;;4970380;28;20442;-77
2024/02/15 13:09:55;;;;;;;2.83;1.30;;;16.70;97.70;;;;;;4968543;28;20821;-77
2024/02/15 13:12:41;;;;;;;2.17;1.20;;;16.60;94.90;;;;;;4967720;28;20846;-76
2024/02/15 13:15:32;;;;;;;5.43;1.80;;;16.50;96.30;;;;;;4966980;28;20801;-77
2024/02/15 13:18:19;;;;;;;4.10;1.30;;;16.40;97.20;;;;;;4969352;28;20429;-78
2024/02/15 13:21:06;;;;;;;2.80;1.30;;;16.40;98.10;;;;;;4967162;28;20831;-76
2024/02/15 13:23:52;;;;;;;5.03;1.40;;;16.40;99.90;;;;;;4966927;28;20447;-76
2024/02/15 13:26:37;;;;;;;3.80;1.23;;;16.30;99.90;;;;;;4969224;28;20959;-77
2024/02/15 13:29:23;;;;;;;3.87;1.60;;;16.40;99.90;;;;;;4969539;28;20423;-77
2024/02/15 13:32:12;;;;;;;3.40;1.30;;;16.30;99.90;;;;;;5006401;23;20496;-71
2024/02/15 13:35:07;;;;;;;3.33;1.40;;;16.30;99.90;;;;;;4992130;28;20590;-71
2024/02/15 13:37:53;;;;;;;3.87;1.53;;;16.30;99.90;;;;;;4988560;28;20545;-70
2024/02/15 13:40:39;;;;;;;4.27;1.40;;;16.30;99.90;;;;;;4993046;28;20450;-71
2024/02/15 13:43:25;;;;;;;8.40;1.90;;;16.20;99.90;;;;;;4990230;28;20671;-71
2024/02/15 13:46:10;;;;;;;3.50;1.60;;;16.20;99.90;;;;;;4988797;28;20782;-70
2024/02/15 13:48:58;;;;;;;3.53;1.50;;;16.20;99.90;;;;;;4987586;28;20618;-71
2024/02/15 13:51:45;;;;;;;6.00;2.00;;;16.10;99.90;;;;;;4986820;28;20482;-71
2024/02/15 13:54:31;;;;;;;5.17;1.70;;;16.00;99.90;;;;;;4986489;28;20503;-71
2024/02/15 13:57:17;;;;;;;3.17;1.47;;;16.00;99.90;;;;;;4988406;28;20458;-71
2024/02/15 14:00:05;;;;;;;3.90;2.03;;;16.00;99.90;;;;;;4991924;28;20828;-70
2024/02/15 14:02:51;;;;;;;9.00;2.07;;;16.00;99.90;;;;;;4989113;28;20442;-71
2024/02/15 14:05:39;;;;;;;8.50;2.30;;;16.00;99.90;;;;;;4987254;28;20436;-70
2024/02/15 14:08:26;;;;;;;7.53;1.80;;;15.90;99.90;;;;;;4988898;28;21055;-70
2024/02/15 14:11:11;;;;;;;5.63;1.77;;;15.90;99.90;;;;;;4983983;28;20484;-71
2024/02/15 14:13:58;;;;;;;4.70;1.87;;;15.80;99.90;;;;;;4986253;28;20460;-70
2024/02/15 14:16:44;;;;;;;6.70;1.73;;;15.90;99.90;;;;;;4984364;28;20429;-72
2024/02/15 14:19:31;;;;;;;7.77;2.13;;;15.80;99.90;;;;;;4991535;28;20968;-73
2024/02/15 14:22:17;;;;;;;4.97;2.00;;;15.80;99.90;;;;;;4984209;28;20497;-73
2024/02/15 14:25:05;;;;;;;3.10;1.67;;;15.80;99.90;;;;;;4988010;28;20462;-72
2024/02/15 14:27:52;;;;;;;5.40;2.10;;;15.80;99.90;;;;;;4996303;28;20473;-72
2024/02/15 14:33:41;;;;;;;6.70;2.00;;;15.70;99.90;;;;;;4990432;28;20516;-72
2024/02/15 14:36:26;;;;;;;7.20;1.57;;;15.70;99.90;;;;;;4992796;28;20953;-73
2024/02/15 14:39:13;;;;;;;5.50;2.43;;;15.70;99.90;;;;;;4992220;28;20492;-73
2024/02/15 14:42:00;;;;;;;6.83;2.50;;;15.70;99.90;;;;;;4992540;28;20468;-73
2024/02/15 14:44:46;;;;;;;6.50;2.73;;;15.70;99.90;;;;;;4989655;28;20919;-72
2024/02/15 14:47:33;;;;;;;7.03;2.23;;;15.70;99.90;;;;;;4995680;28;20885;-73
2024/02/15 14:50:20;;;;;;;5.43;2.00;;;15.60;99.90;;;;;;4994413;28;20482;-72
2024/02/15 14:53:07;;;;;;;5.80;1.77;;;15.70;99.90;;;;;;4990528;28;20978;-72
2024/02/15 14:55:54;;;;;;;4.33;1.40;;;15.60;99.90;;;;;;4993977;28;20536;-73
2024/02/15 14:58:42;;;;;;;8.30;1.80;;;15.60;99.90;;;;;;4990257;28;20453;-72
2024/02/15 15:01:29;;;;;;;3.50;1.30;;;15.60;99.90;;;;;;4993811;28;20585;-73
2024/02/15 15:04:14;;;;;;;4.03;1.50;;;15.60;99.90;;;;;;4994799;28;20959;-72